sensor_id;sensor_type;location;lat;lon;timestamp;P1;durP1;ratioP1;P2;durP2;ratioP2
53931;SDS011;39844;52.496;13.482;2023-03-01T00:02:10;13.17;;;5.17;;
53931;SDS011;39844;52.496;13.482;2023-03-01T00:04:36;9.10;;;5.47;;
53931;SDS011;39844;52.496;13.482;2023-03-01T00:07:01;13.87;;;4.93;;
53931;SDS011;39844;52.496;13.482;2023-03-01T00:09:27;6.13;;;4.17;;
53931;SDS011;39844;52.496;13.482;2023-03-01T00:11:52;10.50;;;5.60;;
53931;SDS011;39844;52.496;13.482;2023-03-01T00:14:17;5.97;;;3.80;;
53931;SDS011;39844;52.496;13.482;2023-03-01T00:16:43;4.17;;;3.70;;
53931;SDS011;39844;52.496;13.482;2023-03-01T00:19:11;6.87;;;4.47;;
53931;SDS011;39844;52.496;13.482;2023-03-01T00:21:38;5.43;;;4.90;;
53931;SDS011;39844;52.496;13.482;2023-03-01T00:24:04;4.80;;;3.57;;
53931;SDS011;39844;52.496;13.482;2023-03-01T00:26:29;5.87;;;4.03;;
53931;SDS011;39844;52.496;13.482;2023-03-01T00:28:56;11.03;;;5.37;;
53931;SDS011;39844;52.496;13.482;2023-03-01T00:31:23;9.90;;;4.37;;
53931;SDS011;39844;52.496;13.482;2023-03-01T00:33:54;16.27;;;5.23;;
53931;SDS011;39844;52.496;13.482;2023-03-01T00:36:21;9.00;;;4.40;;
53931;SDS011;39844;52.496;13.482;2023-03-01T00:38:46;8.03;;;5.13;;
53931;SDS011;39844;52.496;13.482;2023-03-01T00:41:13;8.17;;;5.00;;
53931;SDS011;39844;52.496;13.482;2023-03-01T00:43:40;10.30;;;5.40;;
53931;SDS011;39844;52.496;13.482;2023-03-01T00:46:10;5.87;;;4.43;;
53931;SDS011;39844;52.496;13.482;2023-03-01T00:48:38;4.73;;;3.57;;
53931;SDS011;39844;52.496;13.482;2023-03-01T00:51:07;4.37;;;3.97;;
53931;SDS011;39844;52.496;13.482;2023-03-01T00:53:39;6.53;;;4.03;;
53931;SDS011;39844;52.496;13.482;2023-03-01T00:56:06;7.57;;;4.33;;
53931;SDS011;39844;52.496;13.482;2023-03-01T00:58:33;8.00;;;4.70;;
53931;SDS011;39844;52.496;13.482;2023-03-01T01:00:59;8.40;;;5.40;;
53931;SDS011;39844;52.496;13.482;2023-03-01T01:03:25;11.97;;;4.20;;
53931;SDS011;39844;52.496;13.482;2023-03-01T01:05:53;5.77;;;3.70;;
53931;SDS011;39844;52.496;13.482;2023-03-01T01:08:19;12.97;;;5.27;;
53931;SDS011;39844;52.496;13.482;2023-03-01T01:10:45;7.30;;;4.63;;
53931;SDS011;39844;52.496;13.482;2023-03-01T01:13:11;9.27;;;5.27;;
53931;SDS011;39844;52.496;13.482;2023-03-01T01:15:38;12.77;;;6.53;;
53931;SDS011;39844;52.496;13.482;2023-03-01T01:18:04;6.97;;;4.27;;
53931;SDS011;39844;52.496;13.482;2023-03-01T01:20:29;6.77;;;4.60;;
53931;SDS011;39844;52.496;13.482;2023-03-01T01:22:54;7.00;;;4.87;;
53931;SDS011;39844;52.496;13.482;2023-03-01T01:25:20;5.70;;;4.23;;
53931;SDS011;39844;52.496;13.482;2023-03-01T01:27:45;7.57;;;4.10;;
53931;SDS011;39844;52.496;13.482;2023-03-01T01:30:11;4.27;;;3.57;;
53931;SDS011;39844;52.496;13.482;2023-03-01T01:32:37;6.10;;;5.37;;
53931;SDS011;39844;52.496;13.482;2023-03-01T01:35:02;9.27;;;5.07;;
53931;SDS011;39844;52.496;13.482;2023-03-01T01:37:27;5.73;;;5.03;;
53931;SDS011;39844;52.496;13.482;2023-03-01T01:39:53;11.33;;;4.53;;
53931;SDS011;39844;52.496;13.482;2023-03-01T01:42:18;4.43;;;4.00;;
53931;SDS011;39844;52.496;13.482;2023-03-01T01:44:46;13.47;;;5.47;;
53931;SDS011;39844;52.496;13.482;2023-03-01T01:47:13;6.93;;;4.40;;
53931;SDS011;39844;52.496;13.482;2023-03-01T01:49:43;6.90;;;4.50;;
53931;SDS011;39844;52.496;13.482;2023-03-01T01:54:45;7.17;;;4.27;;
53931;SDS011;39844;52.496;13.482;2023-03-01T01:58:07;9.90;;;4.33;;
53931;SDS011;39844;52.496;13.482;2023-03-01T02:00:23;4.50;;;4.07;;
53931;SDS011;39844;52.496;13.482;2023-03-01T02:02:56;4.30;;;3.67;;
53931;SDS011;39844;52.496;13.482;2023-03-01T02:08:19;10.97;;;5.30;;
53931;SDS011;39844;52.496;13.482;2023-03-01T02:10:46;11.43;;;5.73;;
53931;SDS011;39844;52.496;13.482;2023-03-01T02:13:14;7.60;;;4.80;;
53931;SDS011;39844;52.496;13.482;2023-03-01T02:15:40;8.00;;;4.93;;
53931;SDS011;39844;52.496;13.482;2023-03-01T02:18:06;3.67;;;3.37;;
53931;SDS011;39844;52.496;13.482;2023-03-01T02:23:24;7.47;;;4.67;;
53931;SDS011;39844;52.496;13.482;2023-03-01T02:25:55;6.40;;;3.87;;
53931;SDS011;39844;52.496;13.482;2023-03-01T02:30:55;8.87;;;4.03;;
53931;SDS011;39844;52.496;13.482;2023-03-01T02:33:20;7.03;;;5.37;;
53931;SDS011;39844;52.496;13.482;2023-03-01T02:35:45;8.63;;;4.77;;
53931;SDS011;39844;52.496;13.482;2023-03-01T02:38:11;7.67;;;4.37;;
53931;SDS011;39844;52.496;13.482;2023-03-01T02:40:36;6.63;;;4.87;;
53931;SDS011;39844;52.496;13.482;2023-03-01T02:43:02;5.80;;;4.57;;
53931;SDS011;39844;52.496;13.482;2023-03-01T02:45:32;6.67;;;4.87;;
53931;SDS011;39844;52.496;13.482;2023-03-01T02:47:58;6.63;;;4.93;;
53931;SDS011;39844;52.496;13.482;2023-03-01T02:55:20;6.83;;;4.83;;
53931;SDS011;39844;52.496;13.482;2023-03-01T02:57:46;12.60;;;6.00;;
53931;SDS011;39844;52.496;13.482;2023-03-01T03:00:18;13.77;;;8.00;;
53931;SDS011;39844;52.496;13.482;2023-03-01T03:02:49;7.67;;;6.13;;
53931;SDS011;39844;52.496;13.482;2023-03-01T03:05:17;8.73;;;5.53;;
53931;SDS011;39844;52.496;13.482;2023-03-01T03:07:45;8.10;;;4.87;;
53931;SDS011;39844;52.496;13.482;2023-03-01T03:10:13;12.97;;;6.70;;
53931;SDS011;39844;52.496;13.482;2023-03-01T03:12:41;10.33;;;7.07;;
53931;SDS011;39844;52.496;13.482;2023-03-01T03:15:08;8.33;;;5.57;;
53931;SDS011;39844;52.496;13.482;2023-03-01T03:17:38;9.27;;;6.37;;
53931;SDS011;39844;52.496;13.482;2023-03-01T03:20:05;7.60;;;5.93;;
53931;SDS011;39844;52.496;13.482;2023-03-01T03:22:33;7.77;;;5.43;;
53931;SDS011;39844;52.496;13.482;2023-03-01T03:24:59;17.00;;;8.30;;
53931;SDS011;39844;52.496;13.482;2023-03-01T03:27:24;18.10;;;6.37;;
53931;SDS011;39844;52.496;13.482;2023-03-01T03:29:50;9.80;;;6.00;;
53931;SDS011;39844;52.496;13.482;2023-03-01T03:32:15;9.27;;;7.33;;
53931;SDS011;39844;52.496;13.482;2023-03-01T03:34:40;6.67;;;5.27;;
53931;SDS011;39844;52.496;13.482;2023-03-01T03:37:06;15.27;;;7.90;;
53931;SDS011;39844;52.496;13.482;2023-03-01T03:39:31;9.40;;;7.03;;
53931;SDS011;39844;52.496;13.482;2023-03-01T03:41:57;11.63;;;6.33;;
53931;SDS011;39844;52.496;13.482;2023-03-01T03:44:22;10.33;;;7.00;;
53931;SDS011;39844;52.496;13.482;2023-03-01T03:46:47;9.43;;;7.27;;
53931;SDS011;39844;52.496;13.482;2023-03-01T03:49:13;11.47;;;8.17;;
53931;SDS011;39844;52.496;13.482;2023-03-01T03:51:38;9.20;;;5.73;;
53931;SDS011;39844;52.496;13.482;2023-03-01T03:54:04;12.77;;;6.90;;
53931;SDS011;39844;52.496;13.482;2023-03-01T03:56:29;8.53;;;6.30;;
53931;SDS011;39844;52.496;13.482;2023-03-01T03:58:55;9.40;;;5.73;;
53931;SDS011;39844;52.496;13.482;2023-03-01T04:01:20;8.20;;;5.73;;
53931;SDS011;39844;52.496;13.482;2023-03-01T04:03:45;8.10;;;5.70;;
53931;SDS011;39844;52.496;13.482;2023-03-01T04:06:11;7.40;;;5.53;;
53931;SDS011;39844;52.496;13.482;2023-03-01T04:08:36;10.33;;;5.97;;
53931;SDS011;39844;52.496;13.482;2023-03-01T04:11:02;8.73;;;6.87;;
53931;SDS011;39844;52.496;13.482;2023-03-01T04:13:29;8.63;;;4.93;;
53931;SDS011;39844;52.496;13.482;2023-03-01T04:15:54;10.07;;;5.83;;
53931;SDS011;39844;52.496;13.482;2023-03-01T04:18:20;8.37;;;6.23;;
53931;SDS011;39844;52.496;13.482;2023-03-01T04:20:48;7.90;;;5.83;;
53931;SDS011;39844;52.496;13.482;2023-03-01T04:23:14;12.97;;;7.23;;
53931;SDS011;39844;52.496;13.482;2023-03-01T04:25:46;9.50;;;5.53;;
53931;SDS011;39844;52.496;13.482;2023-03-01T04:28:12;7.30;;;4.97;;
53931;SDS011;39844;52.496;13.482;2023-03-01T04:30:37;6.77;;;4.93;;
53931;SDS011;39844;52.496;13.482;2023-03-01T04:33:07;11.43;;;6.00;;
53931;SDS011;39844;52.496;13.482;2023-03-01T04:35:34;6.83;;;5.20;;
53931;SDS011;39844;52.496;13.482;2023-03-01T04:38:00;9.50;;;5.87;;
53931;SDS011;39844;52.496;13.482;2023-03-01T04:40:25;10.03;;;5.63;;
53931;SDS011;39844;52.496;13.482;2023-03-01T04:42:50;5.97;;;4.87;;
53931;SDS011;39844;52.496;13.482;2023-03-01T04:45:16;9.90;;;6.07;;
53931;SDS011;39844;52.496;13.482;2023-03-01T04:47:42;8.07;;;4.60;;
53931;SDS011;39844;52.496;13.482;2023-03-01T04:50:08;7.50;;;5.37;;
53931;SDS011;39844;52.496;13.482;2023-03-01T04:52:35;6.20;;;5.00;;
53931;SDS011;39844;52.496;13.482;2023-03-01T04:55:01;11.60;;;5.23;;
53931;SDS011;39844;52.496;13.482;2023-03-01T04:57:27;4.87;;;4.40;;
53931;SDS011;39844;52.496;13.482;2023-03-01T04:59:52;5.97;;;5.40;;
53931;SDS011;39844;52.496;13.482;2023-03-01T05:02:17;6.33;;;4.83;;
53931;SDS011;39844;52.496;13.482;2023-03-01T05:04:43;7.30;;;5.33;;
53931;SDS011;39844;52.496;13.482;2023-03-01T05:07:09;7.77;;;5.40;;
53931;SDS011;39844;52.496;13.482;2023-03-01T05:09:35;13.63;;;5.40;;
53931;SDS011;39844;52.496;13.482;2023-03-01T05:12:00;5.40;;;4.43;;
53931;SDS011;39844;52.496;13.482;2023-03-01T05:14:25;6.77;;;5.07;;
53931;SDS011;39844;52.496;13.482;2023-03-01T05:16:51;8.90;;;5.23;;
53931;SDS011;39844;52.496;13.482;2023-03-01T05:19:16;7.67;;;5.73;;
53931;SDS011;39844;52.496;13.482;2023-03-01T05:21:42;7.43;;;5.30;;
53931;SDS011;39844;52.496;13.482;2023-03-01T05:24:08;10.03;;;4.57;;
53931;SDS011;39844;52.496;13.482;2023-03-01T05:26:33;6.53;;;4.17;;
53931;SDS011;39844;52.496;13.482;2023-03-01T05:28:58;5.67;;;4.83;;
53931;SDS011;39844;52.496;13.482;2023-03-01T05:31:24;8.47;;;5.30;;
53931;SDS011;39844;52.496;13.482;2023-03-01T05:33:49;8.40;;;4.67;;
53931;SDS011;39844;52.496;13.482;2023-03-01T05:36:14;8.63;;;5.00;;
53931;SDS011;39844;52.496;13.482;2023-03-01T05:38:39;11.57;;;6.10;;
53931;SDS011;39844;52.496;13.482;2023-03-01T05:41:05;5.00;;;4.17;;
53931;SDS011;39844;52.496;13.482;2023-03-01T05:43:38;8.37;;;4.60;;
53931;SDS011;39844;52.496;13.482;2023-03-01T05:46:03;5.20;;;4.80;;
53931;SDS011;39844;52.496;13.482;2023-03-01T05:48:28;5.33;;;3.87;;
53931;SDS011;39844;52.496;13.482;2023-03-01T05:50:54;5.80;;;4.03;;
53931;SDS011;39844;52.496;13.482;2023-03-01T05:53:19;6.93;;;5.03;;
53931;SDS011;39844;52.496;13.482;2023-03-01T05:55:45;10.00;;;4.67;;
53931;SDS011;39844;52.496;13.482;2023-03-01T05:58:12;8.10;;;5.17;;
53931;SDS011;39844;52.496;13.482;2023-03-01T06:00:45;5.20;;;4.70;;
53931;SDS011;39844;52.496;13.482;2023-03-01T06:03:12;8.17;;;5.00;;
53931;SDS011;39844;52.496;13.482;2023-03-01T06:05:40;8.67;;;4.70;;
53931;SDS011;39844;52.496;13.482;2023-03-01T06:08:06;10.07;;;5.40;;
53931;SDS011;39844;52.496;13.482;2023-03-01T06:10:31;5.67;;;4.60;;
53931;SDS011;39844;52.496;13.482;2023-03-01T06:12:56;10.17;;;5.50;;
53931;SDS011;39844;52.496;13.482;2023-03-01T06:15:22;6.43;;;5.63;;
53931;SDS011;39844;52.496;13.482;2023-03-01T06:17:47;8.27;;;4.67;;
53931;SDS011;39844;52.496;13.482;2023-03-01T06:20:14;8.17;;;5.20;;
53931;SDS011;39844;52.496;13.482;2023-03-01T06:22:42;6.37;;;4.60;;
53931;SDS011;39844;52.496;13.482;2023-03-01T06:25:08;8.23;;;5.20;;
53931;SDS011;39844;52.496;13.482;2023-03-01T06:27:34;5.73;;;4.93;;
53931;SDS011;39844;52.496;13.482;2023-03-01T06:29:59;6.00;;;4.80;;
53931;SDS011;39844;52.496;13.482;2023-03-01T06:32:24;9.87;;;5.40;;
53931;SDS011;39844;52.496;13.482;2023-03-01T06:34:50;6.83;;;5.07;;
53931;SDS011;39844;52.496;13.482;2023-03-01T06:37:15;5.93;;;4.40;;
53931;SDS011;39844;52.496;13.482;2023-03-01T06:39:41;5.93;;;4.13;;
53931;SDS011;39844;52.496;13.482;2023-03-01T06:42:07;7.97;;;4.60;;
53931;SDS011;39844;52.496;13.482;2023-03-01T06:44:33;8.27;;;4.70;;
53931;SDS011;39844;52.496;13.482;2023-03-01T06:46:58;6.50;;;5.10;;
53931;SDS011;39844;52.496;13.482;2023-03-01T06:49:23;4.43;;;4.07;;
53931;SDS011;39844;52.496;13.482;2023-03-01T06:51:48;7.77;;;4.90;;
53931;SDS011;39844;52.496;13.482;2023-03-01T06:54:14;8.23;;;5.10;;
53931;SDS011;39844;52.496;13.482;2023-03-01T06:56:39;5.23;;;4.33;;
53931;SDS011;39844;52.496;13.482;2023-03-01T06:59:04;4.13;;;3.83;;
53931;SDS011;39844;52.496;13.482;2023-03-01T07:01:30;11.87;;;5.30;;
53931;SDS011;39844;52.496;13.482;2023-03-01T07:03:55;7.07;;;4.97;;
53931;SDS011;39844;52.496;13.482;2023-03-01T07:06:21;6.67;;;3.77;;
53931;SDS011;39844;52.496;13.482;2023-03-01T07:08:47;8.03;;;4.77;;
53931;SDS011;39844;52.496;13.482;2023-03-01T07:11:12;6.37;;;5.40;;
53931;SDS011;39844;52.496;13.482;2023-03-01T07:13:38;5.53;;;4.33;;
53931;SDS011;39844;52.496;13.482;2023-03-01T07:16:03;4.57;;;3.67;;
53931;SDS011;39844;52.496;13.482;2023-03-01T07:18:28;3.93;;;3.53;;
53931;SDS011;39844;52.496;13.482;2023-03-01T07:20:54;5.37;;;4.40;;
53931;SDS011;39844;52.496;13.482;2023-03-01T07:23:19;5.77;;;4.13;;
53931;SDS011;39844;52.496;13.482;2023-03-01T07:25:50;6.93;;;4.33;;
53931;SDS011;39844;52.496;13.482;2023-03-01T07:28:16;4.50;;;4.10;;
53931;SDS011;39844;52.496;13.482;2023-03-01T07:30:42;5.07;;;3.73;;
53931;SDS011;39844;52.496;13.482;2023-03-01T07:33:07;5.87;;;4.30;;
53931;SDS011;39844;52.496;13.482;2023-03-01T07:35:32;4.07;;;3.73;;
53931;SDS011;39844;52.496;13.482;2023-03-01T07:37:57;4.17;;;3.77;;
53931;SDS011;39844;52.496;13.482;2023-03-01T07:40:23;4.67;;;4.10;;
53931;SDS011;39844;52.496;13.482;2023-03-01T07:42:48;14.47;;;7.07;;
53931;SDS011;39844;52.496;13.482;2023-03-01T07:45:13;8.03;;;4.73;;
53931;SDS011;39844;52.496;13.482;2023-03-01T07:47:39;6.73;;;4.20;;
53931;SDS011;39844;52.496;13.482;2023-03-01T07:50:04;4.50;;;3.70;;
53931;SDS011;39844;52.496;13.482;2023-03-01T07:52:30;7.00;;;3.57;;
53931;SDS011;39844;52.496;13.482;2023-03-01T07:54:56;7.97;;;4.67;;
53931;SDS011;39844;52.496;13.482;2023-03-01T07:57:21;5.13;;;4.07;;
53931;SDS011;39844;52.496;13.482;2023-03-01T07:59:47;5.70;;;4.63;;
53931;SDS011;39844;52.496;13.482;2023-03-01T08:02:12;3.90;;;3.33;;
53931;SDS011;39844;52.496;13.482;2023-03-01T08:04:38;4.57;;;3.43;;
53931;SDS011;39844;52.496;13.482;2023-03-01T08:07:04;6.03;;;4.17;;
53931;SDS011;39844;52.496;13.482;2023-03-01T08:09:30;6.07;;;4.67;;
53931;SDS011;39844;52.496;13.482;2023-03-01T08:11:56;6.00;;;4.10;;
53931;SDS011;39844;52.496;13.482;2023-03-01T08:14:22;3.63;;;3.37;;
53931;SDS011;39844;52.496;13.482;2023-03-01T08:16:50;3.30;;;2.87;;
53931;SDS011;39844;52.496;13.482;2023-03-01T08:19:16;4.50;;;4.10;;
53931;SDS011;39844;52.496;13.482;2023-03-01T08:21:41;5.50;;;4.23;;
53931;SDS011;39844;52.496;13.482;2023-03-01T08:24:07;6.17;;;4.60;;
53931;SDS011;39844;52.496;13.482;2023-03-01T08:26:33;6.23;;;4.87;;
53931;SDS011;39844;52.496;13.482;2023-03-01T08:28:59;5.90;;;5.00;;
53931;SDS011;39844;52.496;13.482;2023-03-01T08:31:26;7.90;;;4.63;;
53931;SDS011;39844;52.496;13.482;2023-03-01T08:33:54;3.97;;;3.57;;
53931;SDS011;39844;52.496;13.482;2023-03-01T08:36:25;5.47;;;4.50;;
53931;SDS011;39844;52.496;13.482;2023-03-01T08:38:52;5.50;;;3.87;;
53931;SDS011;39844;52.496;13.482;2023-03-01T08:41:17;4.67;;;3.93;;
53931;SDS011;39844;52.496;13.482;2023-03-01T08:43:43;7.27;;;4.30;;
53931;SDS011;39844;52.496;13.482;2023-03-01T08:46:09;8.23;;;4.53;;
53931;SDS011;39844;52.496;13.482;2023-03-01T08:48:35;8.13;;;4.23;;
53931;SDS011;39844;52.496;13.482;2023-03-01T08:51:07;7.97;;;4.23;;
53931;SDS011;39844;52.496;13.482;2023-03-01T08:56:15;6.13;;;4.13;;
53931;SDS011;39844;52.496;13.482;2023-03-01T08:58:47;5.27;;;3.67;;
53931;SDS011;39844;52.496;13.482;2023-03-01T09:01:14;4.53;;;3.93;;
53931;SDS011;39844;52.496;13.482;2023-03-01T09:03:41;4.80;;;4.40;;
53931;SDS011;39844;52.496;13.482;2023-03-01T09:06:07;4.67;;;4.17;;
53931;SDS011;39844;52.496;13.482;2023-03-01T09:08:36;4.57;;;3.80;;
53931;SDS011;39844;52.496;13.482;2023-03-01T09:11:03;8.53;;;4.03;;
53931;SDS011;39844;52.496;13.482;2023-03-01T09:13:29;7.00;;;4.63;;
53931;SDS011;39844;52.496;13.482;2023-03-01T09:15:54;5.03;;;3.87;;
53931;SDS011;39844;52.496;13.482;2023-03-01T09:18:20;7.17;;;4.20;;
53931;SDS011;39844;52.496;13.482;2023-03-01T09:20:45;10.63;;;4.43;;
53931;SDS011;39844;52.496;13.482;2023-03-01T09:23:10;8.13;;;3.67;;
53931;SDS011;39844;52.496;13.482;2023-03-01T09:25:36;6.57;;;3.70;;
53931;SDS011;39844;52.496;13.482;2023-03-01T09:28:01;7.47;;;3.23;;
53931;SDS011;39844;52.496;13.482;2023-03-01T09:30:26;4.27;;;3.77;;
53931;SDS011;39844;52.496;13.482;2023-03-01T09:32:52;5.67;;;4.00;;
53931;SDS011;39844;52.496;13.482;2023-03-01T09:35:17;5.47;;;3.43;;
53931;SDS011;39844;52.496;13.482;2023-03-01T09:37:42;3.70;;;3.37;;
53931;SDS011;39844;52.496;13.482;2023-03-01T09:40:15;3.70;;;3.37;;
53931;SDS011;39844;52.496;13.482;2023-03-01T09:42:51;4.33;;;3.50;;
53931;SDS011;39844;52.496;13.482;2023-03-01T09:45:27;5.63;;;3.67;;
53931;SDS011;39844;52.496;13.482;2023-03-01T09:47:58;17.73;;;3.47;;
53931;SDS011;39844;52.496;13.482;2023-03-01T09:50:23;4.83;;;2.83;;
53931;SDS011;39844;52.496;13.482;2023-03-01T09:53:03;3.87;;;2.73;;
53931;SDS011;39844;52.496;13.482;2023-03-01T09:55:31;2.80;;;2.40;;
53931;SDS011;39844;52.496;13.482;2023-03-01T10:01:10;2.07;;;1.93;;
53931;SDS011;39844;52.496;13.482;2023-03-01T10:03:39;2.40;;;1.83;;
53931;SDS011;39844;52.496;13.482;2023-03-01T10:06:14;3.27;;;2.30;;
53931;SDS011;39844;52.496;13.482;2023-03-01T10:09:00;6.27;;;2.33;;
53931;SDS011;39844;52.496;13.482;2023-03-01T10:11:31;2.73;;;2.53;;
53931;SDS011;39844;52.496;13.482;2023-03-01T10:17:02;2.00;;;1.90;;
53931;SDS011;39844;52.496;13.482;2023-03-01T10:19:39;2.87;;;2.30;;
53931;SDS011;39844;52.496;13.482;2023-03-01T10:22:15;2.90;;;2.30;;
53931;SDS011;39844;52.496;13.482;2023-03-01T10:24:45;2.73;;;2.53;;
53931;SDS011;39844;52.496;13.482;2023-03-01T10:27:13;2.43;;;2.13;;
53931;SDS011;39844;52.496;13.482;2023-03-01T10:29:49;7.37;;;1.90;;
53931;SDS011;39844;52.496;13.482;2023-03-01T10:32:24;2.53;;;1.70;;
53931;SDS011;39844;52.496;13.482;2023-03-01T10:34:51;2.73;;;2.33;;
53931;SDS011;39844;52.496;13.482;2023-03-01T10:37:17;2.73;;;2.37;;
53931;SDS011;39844;52.496;13.482;2023-03-01T10:40:04;2.90;;;2.23;;
53931;SDS011;39844;52.496;13.482;2023-03-01T10:42:33;2.97;;;2.30;;
53931;SDS011;39844;52.496;13.482;2023-03-01T10:45:16;3.30;;;1.87;;
53931;SDS011;39844;52.496;13.482;2023-03-01T10:48:17;3.77;;;1.73;;
53931;SDS011;39844;52.496;13.482;2023-03-01T10:51:04;6.73;;;2.23;;
53931;SDS011;39844;52.496;13.482;2023-03-01T10:53:33;2.10;;;1.90;;
53931;SDS011;39844;52.496;13.482;2023-03-01T10:58:25;2.17;;;1.90;;
53931;SDS011;39844;52.496;13.482;2023-03-01T11:01:05;3.90;;;1.90;;
53931;SDS011;39844;52.496;13.482;2023-03-01T11:03:40;3.93;;;1.47;;
53931;SDS011;39844;52.496;13.482;2023-03-01T11:06:19;3.97;;;1.80;;
53931;SDS011;39844;52.496;13.482;2023-03-01T11:08:47;1.70;;;1.70;;
53931;SDS011;39844;52.496;13.482;2023-03-01T11:11:30;2.10;;;1.90;;
53931;SDS011;39844;52.496;13.482;2023-03-01T11:16:44;2.10;;;2.00;;
53931;SDS011;39844;52.496;13.482;2023-03-01T11:21:38;2.10;;;1.90;;
53931;SDS011;39844;52.496;13.482;2023-03-01T11:24:30;1.70;;;1.60;;
53931;SDS011;39844;52.496;13.482;2023-03-01T11:27:04;1.67;;;1.57;;
53931;SDS011;39844;52.496;13.482;2023-03-01T11:29:37;2.27;;;1.60;;
53931;SDS011;39844;52.496;13.482;2023-03-01T11:32:07;1.50;;;1.50;;
53931;SDS011;39844;52.496;13.482;2023-03-01T11:34:43;1.87;;;1.77;;
53931;SDS011;39844;52.496;13.482;2023-03-01T11:37:36;5.50;;;1.90;;
53931;SDS011;39844;52.496;13.482;2023-03-01T11:40:23;2.03;;;1.80;;
53931;SDS011;39844;52.496;13.482;2023-03-01T11:54:13;3.93;;;2.03;;
53931;SDS011;39844;52.496;13.482;2023-03-01T11:57:04;1.67;;;1.50;;
53931;SDS011;39844;52.496;13.482;2023-03-01T12:02:43;1.37;;;1.27;;
53931;SDS011;39844;52.496;13.482;2023-03-01T12:08:01;1.07;;;1.07;;
53931;SDS011;39844;52.496;13.482;2023-03-01T12:13:42;1.87;;;1.60;;
53931;SDS011;39844;52.496;13.482;2023-03-01T12:16:27;2.00;;;1.30;;
53931;SDS011;39844;52.496;13.482;2023-03-01T12:27:15;1.77;;;1.50;;
53931;SDS011;39844;52.496;13.482;2023-03-01T12:32:40;1.60;;;1.50;;
53931;SDS011;39844;52.496;13.482;2023-03-01T12:35:20;2.57;;;1.53;;
53931;SDS011;39844;52.496;13.482;2023-03-01T12:43:35;1.23;;;1.23;;
53931;SDS011;39844;52.496;13.482;2023-03-01T12:49:08;1.47;;;1.37;;
53931;SDS011;39844;52.496;13.482;2023-03-01T12:51:38;1.80;;;1.70;;
53931;SDS011;39844;52.496;13.482;2023-03-01T12:54:07;4.30;;;3.10;;
53931;SDS011;39844;52.496;13.482;2023-03-01T12:56:40;5.10;;;3.40;;
53931;SDS011;39844;52.496;13.482;2023-03-01T13:01:42;1.70;;;1.60;;
53931;SDS011;39844;52.496;13.482;2023-03-01T13:04:36;4.63;;;1.77;;
53931;SDS011;39844;52.496;13.482;2023-03-01T13:07:13;2.17;;;1.63;;
53931;SDS011;39844;52.496;13.482;2023-03-01T13:10:11;1.67;;;1.57;;
53931;SDS011;39844;52.496;13.482;2023-03-01T13:12:46;2.43;;;1.33;;
53931;SDS011;39844;52.496;13.482;2023-03-01T13:17:48;3.63;;;1.33;;
53931;SDS011;39844;52.496;13.482;2023-03-01T13:20:16;4.90;;;1.27;;
53931;SDS011;39844;52.496;13.482;2023-03-01T13:22:43;1.30;;;1.20;;
53931;SDS011;39844;52.496;13.482;2023-03-01T13:25:13;1.67;;;1.57;;
53931;SDS011;39844;52.496;13.482;2023-03-01T13:27:42;1.60;;;1.27;;
53931;SDS011;39844;52.496;13.482;2023-03-01T13:35:48;1.60;;;1.50;;
53931;SDS011;39844;52.496;13.482;2023-03-01T13:41:06;2.37;;;1.60;;
53931;SDS011;39844;52.496;13.482;2023-03-01T13:43:36;2.40;;;1.50;;
53931;SDS011;39844;52.496;13.482;2023-03-01T13:46:21;1.57;;;1.47;;
53931;SDS011;39844;52.496;13.482;2023-03-01T13:48:52;1.57;;;1.47;;
53931;SDS011;39844;52.496;13.482;2023-03-01T13:51:25;1.60;;;1.50;;
53931;SDS011;39844;52.496;13.482;2023-03-01T13:53:52;1.50;;;1.40;;
53931;SDS011;39844;52.496;13.482;2023-03-01T13:56:27;4.30;;;1.60;;
53931;SDS011;39844;52.496;13.482;2023-03-01T13:58:58;1.57;;;1.47;;
53931;SDS011;39844;52.496;13.482;2023-03-01T14:01:29;5.20;;;1.70;;
53931;SDS011;39844;52.496;13.482;2023-03-01T14:03:59;1.60;;;1.50;;
53931;SDS011;39844;52.496;13.482;2023-03-01T14:06:31;2.33;;;1.57;;
53931;SDS011;39844;52.496;13.482;2023-03-01T14:19:39;1.63;;;1.50;;
53931;SDS011;39844;52.496;13.482;2023-03-01T14:22:13;1.87;;;1.77;;
53931;SDS011;39844;52.496;13.482;2023-03-01T14:24:49;2.97;;;1.47;;
53931;SDS011;39844;52.496;13.482;2023-03-01T14:27:27;1.73;;;1.63;;
53931;SDS011;39844;52.496;13.482;2023-03-01T14:29:58;1.90;;;1.80;;
53931;SDS011;39844;52.496;13.482;2023-03-01T14:32:26;1.60;;;1.50;;
53931;SDS011;39844;52.496;13.482;2023-03-01T14:34:57;2.40;;;1.43;;
53931;SDS011;39844;52.496;13.482;2023-03-01T14:37:31;1.63;;;1.43;;
53931;SDS011;39844;52.496;13.482;2023-03-01T14:39:58;1.80;;;1.70;;
53931;SDS011;39844;52.496;13.482;2023-03-01T14:42:26;1.70;;;1.60;;
53931;SDS011;39844;52.496;13.482;2023-03-01T14:44:54;1.77;;;1.67;;
53931;SDS011;39844;52.496;13.482;2023-03-01T14:47:29;1.73;;;1.63;;
53931;SDS011;39844;52.496;13.482;2023-03-01T14:49:58;2.40;;;1.90;;
53931;SDS011;39844;52.496;13.482;2023-03-01T14:52:59;2.27;;;1.50;;
53931;SDS011;39844;52.496;13.482;2023-03-01T14:55:30;1.30;;;1.30;;
53931;SDS011;39844;52.496;13.482;2023-03-01T14:57:58;5.30;;;1.80;;
53931;SDS011;39844;52.496;13.482;2023-03-01T15:00:24;1.30;;;1.30;;
53931;SDS011;39844;52.496;13.482;2023-03-01T15:02:53;1.80;;;1.70;;
53931;SDS011;39844;52.496;13.482;2023-03-01T15:05:27;2.20;;;1.60;;
53931;SDS011;39844;52.496;13.482;2023-03-01T15:07:58;1.70;;;1.60;;
53931;SDS011;39844;52.496;13.482;2023-03-01T15:10:26;1.70;;;1.60;;
53931;SDS011;39844;52.496;13.482;2023-03-01T15:13:09;1.73;;;1.63;;
53931;SDS011;39844;52.496;13.482;2023-03-01T15:15:38;1.63;;;1.53;;
53931;SDS011;39844;52.496;13.482;2023-03-01T15:18:15;2.53;;;1.50;;
53931;SDS011;39844;52.496;13.482;2023-03-01T15:20:44;1.47;;;1.37;;
53931;SDS011;39844;52.496;13.482;2023-03-01T15:23:17;1.87;;;1.40;;
53931;SDS011;39844;52.496;13.482;2023-03-01T15:25:54;1.13;;;1.13;;
53931;SDS011;39844;52.496;13.482;2023-03-01T15:28:20;3.00;;;1.43;;
53931;SDS011;39844;52.496;13.482;2023-03-01T15:30:45;1.07;;;1.00;;
53931;SDS011;39844;52.496;13.482;2023-03-01T15:35:48;1.40;;;1.30;;
53931;SDS011;39844;52.496;13.482;2023-03-01T15:40:56;1.37;;;1.27;;
53931;SDS011;39844;52.496;13.482;2023-03-01T15:43:40;2.60;;;1.57;;
53931;SDS011;39844;52.496;13.482;2023-03-01T15:46:13;2.00;;;1.23;;
53931;SDS011;39844;52.496;13.482;2023-03-01T15:48:46;3.77;;;1.30;;
53931;SDS011;39844;52.496;13.482;2023-03-01T15:51:13;1.80;;;1.43;;
53931;SDS011;39844;52.496;13.482;2023-03-01T15:53:39;1.50;;;1.40;;
53931;SDS011;39844;52.496;13.482;2023-03-01T15:56:04;1.20;;;1.10;;
53931;SDS011;39844;52.496;13.482;2023-03-01T15:58:29;1.30;;;1.30;;
53931;SDS011;39844;52.496;13.482;2023-03-01T16:00:55;1.63;;;1.30;;
53931;SDS011;39844;52.496;13.482;2023-03-01T16:03:20;1.83;;;1.40;;
53931;SDS011;39844;52.496;13.482;2023-03-01T16:05:45;2.37;;;1.47;;
53931;SDS011;39844;52.496;13.482;2023-03-01T16:08:10;1.30;;;1.13;;
53931;SDS011;39844;52.496;13.482;2023-03-01T16:10:36;3.23;;;1.43;;
53931;SDS011;39844;52.496;13.482;2023-03-01T16:13:01;2.67;;;1.43;;
53931;SDS011;39844;52.496;13.482;2023-03-01T16:15:28;3.67;;;1.50;;
53931;SDS011;39844;52.496;13.482;2023-03-01T16:17:56;1.70;;;1.47;;
53931;SDS011;39844;52.496;13.482;2023-03-01T16:20:21;2.93;;;1.60;;
53931;SDS011;39844;52.496;13.482;2023-03-01T16:22:47;1.50;;;1.40;;
53931;SDS011;39844;52.496;13.482;2023-03-01T16:25:14;2.20;;;1.60;;